Angier, NC

8:34 AM EDT on April 21, 2015 (GMT -0400)
Tram Rd | | Change Station
CLOSE
Current Station
Personal Weather Station
Location: Fuquay Varina, NC
Elevation: 315 ft
Nearby Weather Stations

Elev 315 ft 35.55 °N, 78.75 °W | Updated 22 seconds ago

Partly Cloudy
Partly Cloudy
64.4 °F
Feels Like 64.4 °F
N
0.0
Wind Variable Wind from SSW
Gusts 3.1 mph

Today
High -- | Low -- °F
--% Chance of Precip.
Yesterday
High -- | Low -- °F
Precip. -- in
6:35 AM 7:52 PM
Waxing Crescent, 10% visible
Pressure 29.88 in
Visibility 10.0 miles
Clouds Scattered Clouds 6000 ft
Dew Point 48 °F
Humidity 56%
Rainfall 0.00 in
Snow Depth Not available.
UV 0.0 out of 12
Pollen 10.20 out of 12
Air Quality Not available.
Flu Activity Sporadic
METAR KHRJ 211215Z AUTO 00000KT 10SM SCT060 14/07 A2988 RMK AO2 T01410068

More Conditions Fewer Conditions

Pressure 29.88 in
Visibility 10.0 miles
Clouds Scattered Clouds 6000 ft
Dew Point 48 °F
Humidity 56%
Rainfall 0.00 in
Snow Depth Not available.
UV 0.0 out of 12
Pollen 10.20 out of 12
Air Quality Not available.
Flu Activity Sporadic
METAR KHRJ 211215Z AUTO 00000KT 10SM SCT060 14/07 A2988 RMK AO2 T01410068

More Conditions Fewer Conditions

10-Day Weather Forecast

Almanac

Astronomy

Apr. 21, 2015 Rise Set
Actual Time
Civil Twilight
Nautical Twilight
Astronomical Twilight
Moon
Length of Visible Light
Length of Day
Tomorrow will be .
, % of the Moon is Illuminated

Today's Extremes

State Highs State Lows

Community

WunderPhotos

Upload Photos

1,815,354 photos uploaded!

WunderBlogs® & News

Nearby

Air Quality

  Air Quality AQ Index Pollutant
Not available.

Snow Depth

Station Depth Elevation

Earthquake Activity

City Distance Mag. Time & Date
Minimum magnitude displayed is 2.5.

Coastal Water Temperatures

Place Temperature

Stations

Nearby Weather Stations

Station Location Temp. Windchill Dew Point Humidity Wind Precip. Elev Updated Type